Time;durP1;ratioP1;P1;durP2;ratioP2;P2;SDS_P1;SDS_P2;PMS_P1;PMS_P2;Temp;Humidity;BMP_temperature;BMP_pressure;BME280_temperature;BME280_humidity;BME280_pressure;Samples;Min_cycle;Max_cycle;Signal;HPM_P1;HPM_P2
2022/02/07 00:00:08;;;;;;;0.00;0.00;;;;;;;;;;5046150;28;20049;-59
2022/02/07 00:03:03;;;;;;;0.52;0.00;;;;;;;;;;5034299;28;20410;-59
2022/02/07 00:05:25;;;;;;;0.00;0.00;;;;;;;;;;5034981;28;20035;-59
2022/02/07 00:07:50;;;;;;;0.10;0.10;;;;;;;;;;5014404;28;20112;-59
2022/02/07 00:10:16;;;;;;;0.28;0.10;;;;;;;;;;5042135;28;20151;-58
2022/02/07 00:12:41;;;;;;;0.65;0.20;;;;;;;;;;5034512;28;20375;-59
2022/02/07 00:15:09;;;;;;;0.30;0.00;;;;;;;;;;5031797;28;20264;-59
2022/02/07 00:17:35;;;;;;;0.88;0.00;;;;;;;;;;5032680;28;20125;-59
2022/02/07 00:20:04;;;;;;;0.05;0.00;;;;;;;;;;5033609;28;20097;-59
2022/02/07 00:22:29;;;;;;;0.52;0.03;;;;;;;;;;5028638;28;20028;-60
2022/02/07 00:24:54;;;;;;;0.00;0.00;;;;;;;;;;5026064;28;20026;-61
2022/02/07 00:27:19;;;;;;;0.43;0.00;;;;;;;;;;5015766;28;20274;-59
2022/02/07 00:29:44;;;;;;;1.10;0.00;;;;;;;;;;5033518;28;20159;-60
2022/02/07 00:32:10;;;;;;;0.30;0.00;;;;;;;;;;5033096;28;20026;-60
2022/02/07 00:34:35;;;;;;;0.40;0.00;;;;;;;;;;5033148;28;20398;-60
2022/02/07 00:37:00;;;;;;;0.28;0.00;;;;;;;;;;5033806;28;20029;-60
2022/02/07 00:39:32;;;;;;;0.00;0.00;;;;;;;;;;5034161;28;20459;-58
2022/02/07 00:42:04;;;;;;;0.20;0.10;;;;;;;;;;5033121;28;20044;-58
2022/02/07 00:44:32;;;;;;;0.10;0.00;;;;;;;;;;5032736;28;20091;-61
2022/02/07 00:46:58;;;;;;;0.75;0.00;;;;;;;;;;5028496;28;20021;-58
2022/02/07 00:49:23;;;;;;;0.20;0.00;;;;;;;;;;5031312;28;20032;-59
2022/02/07 00:51:49;;;;;;;0.10;0.10;;;;;;;;;;5031236;28;20397;-59
2022/02/07 00:54:14;;;;;;;0.17;0.00;;;;;;;;;;5050032;28;20084;-59
2022/02/07 00:56:40;;;;;;;0.30;0.00;;;;;;;;;;5034623;28;20045;-58
2022/02/07 00:59:05;;;;;;;0.10;0.00;;;;;;;;;;5032746;28;20462;-59
2022/02/07 01:01:30;;;;;;;0.15;0.00;;;;;;;;;;5050408;28;20495;-59
2022/02/07 01:03:55;;;;;;;1.08;0.10;;;;;;;;;;5038382;28;20096;-58
2022/02/07 01:06:21;;;;;;;0.50;0.10;;;;;;;;;;5032536;28;20460;-59
2022/02/07 01:08:51;;;;;;;0.20;0.00;;;;;;;;;;5039303;28;20028;-59
2022/02/07 01:11:48;;;;;;;0.15;0.10;;;;;;;;;;5040784;28;20409;-59
2022/02/07 01:52:19;;;;;;;2.67;0.20;;;;;;;;;;5010199;28;20037;-62
2022/02/07 01:55:00;;;;;;;1.77;0.10;;;;;;;;;;5016037;28;20061;-61
2022/02/07 01:57:26;;;;;;;1.63;0.10;;;;;;;;;;5016674;28;20160;-62
2022/02/07 01:59:51;;;;;;;1.70;0.10;;;;;;;;;;5010351;28;20133;-62
2022/02/07 02:02:16;;;;;;;0.70;0.30;;;;;;;;;;5009396;28;20049;-62
2022/02/07 02:04:41;;;;;;;1.17;0.10;;;;;;;;;;5010015;28;20065;-62
2022/02/07 02:07:07;;;;;;;2.77;0.50;;;;;;;;;;5009634;28;20056;-62
2022/02/07 02:09:33;;;;;;;1.27;0.10;;;;;;;;;;5009298;28;20474;-61
2022/02/07 02:11:58;;;;;;;1.00;0.20;;;;;;;;;;5009005;28;20048;-63
2022/02/07 02:14:38;;;;;;;1.23;0.10;;;;;;;;;;5021715;28;20069;-61
2022/02/07 02:38:16;;;;;;;0.70;0.10;;;;;;;;;;5048484;28;20491;-59
2022/02/07 02:46:15;;;;;;;0.67;0.10;;;;;;;;;;5031637;28;20052;-61
2022/02/07 02:48:42;;;;;;;1.83;0.20;;;;;;;;;;5039315;28;20131;-60
2022/02/07 02:51:08;;;;;;;0.93;0.13;;;;;;;;;;5027803;28;20095;-61
2022/02/07 02:53:34;;;;;;;3.97;0.40;;;;;;;;;;5024404;28;20380;-61
2022/02/07 02:55:59;;;;;;;2.03;0.40;;;;;;;;;;5031695;28;20055;-62
2022/02/07 02:58:24;;;;;;;1.40;0.20;;;;;;;;;;5035285;28;20057;-60
2022/02/07 03:00:50;;;;;;;1.50;0.50;;;;;;;;;;5023667;28;20104;-62
2022/02/07 03:03:15;;;;;;;0.20;0.20;;;;;;;;;;5031453;28;20474;-62
2022/02/07 03:05:44;;;;;;;1.47;0.10;;;;;;;;;;5030515;28;20060;-61
2022/02/07 03:08:10;;;;;;;1.13;0.10;;;;;;;;;;5036650;28;20104;-61
2022/02/07 03:11:02;;;;;;;1.97;0.20;;;;;;;;;;5030970;28;20053;-61
2022/02/07 03:18:36;;;;;;;3.27;0.50;;;;;;;;;;5036921;28;20086;-62
2022/02/07 03:21:01;;;;;;;1.20;0.00;;;;;;;;;;5025829;28;20089;-62
2022/02/07 03:23:27;;;;;;;0.40;0.10;;;;;;;;;;5043059;28;20484;-62
2022/02/07 03:25:53;;;;;;;3.80;0.07;;;;;;;;;;5036890;28;20017;-62
2022/02/07 03:28:19;;;;;;;1.80;0.10;;;;;;;;;;5048796;28;20025;-62
2022/02/07 03:30:44;;;;;;;2.00;0.10;;;;;;;;;;5038288;28;20026;-62
2022/02/07 03:33:09;;;;;;;1.57;0.10;;;;;;;;;;5033894;28;20462;-62
2022/02/07 03:35:35;;;;;;;0.40;0.10;;;;;;;;;;5033721;28;20475;-62
2022/02/07 03:38:01;;;;;;;1.30;0.00;;;;;;;;;;5044918;28;20089;-62
2022/02/07 03:40:26;;;;;;;0.40;0.00;;;;;;;;;;5027457;28;20025;-62
2022/02/07 03:42:52;;;;;;;2.23;0.30;;;;;;;;;;5034145;28;20029;-62
2022/02/07 03:45:17;;;;;;;0.10;0.00;;;;;;;;;;5033842;28;20464;-62
2022/02/07 03:47:42;;;;;;;0.40;0.00;;;;;;;;;;5033540;28;20029;-64
2022/02/07 03:50:08;;;;;;;1.13;0.00;;;;;;;;;;5033738;28;20029;-62
2022/02/07 03:52:33;;;;;;;0.33;0.00;;;;;;;;;;5023749;28;20077;-62
2022/02/07 03:54:58;;;;;;;0.17;0.00;;;;;;;;;;5026873;28;20061;-62
2022/02/07 03:57:24;;;;;;;0.20;0.00;;;;;;;;;;5017573;28;20105;-63
2022/02/07 03:59:49;;;;;;;0.77;0.00;;;;;;;;;;5041833;28;20385;-64
2022/02/07 04:02:14;;;;;;;2.37;0.10;;;;;;;;;;5034021;28;20523;-64
2022/02/07 04:04:42;;;;;;;0.33;0.00;;;;;;;;;;5033658;28;20033;-62
2022/02/07 04:07:08;;;;;;;1.23;0.07;;;;;;;;;;5034227;28;20014;-63
2022/02/07 04:09:39;;;;;;;1.70;0.10;;;;;;;;;;5038165;28;20026;-64
2022/02/07 04:12:13;;;;;;;1.40;0.00;;;;;;;;;;5033736;28;20086;-64
2022/02/07 04:14:38;;;;;;;1.53;0.10;;;;;;;;;;5033065;28;20489;-64
2022/02/07 04:17:07;;;;;;;0.97;0.03;;;;;;;;;;5034036;28;20036;-64
2022/02/07 04:19:34;;;;;;;1.10;0.00;;;;;;;;;;5032919;28;20492;-64
2022/02/07 04:22:01;;;;;;;1.07;0.30;;;;;;;;;;5037581;28;20078;-63
2022/02/07 04:24:26;;;;;;;2.23;0.20;;;;;;;;;;5047152;28;20033;-63
2022/02/07 04:26:51;;;;;;;2.67;0.10;;;;;;;;;;5047458;28;20029;-63
2022/02/07 04:29:16;;;;;;;1.73;0.23;;;;;;;;;;5034034;28;20037;-63
2022/02/07 04:31:42;;;;;;;2.93;0.10;;;;;;;;;;5035263;28;20065;-63
2022/02/07 04:34:07;;;;;;;0.50;0.10;;;;;;;;;;5032985;28;20380;-65
2022/02/07 04:36:32;;;;;;;0.87;0.10;;;;;;;;;;5033916;28;20018;-64
2022/02/07 04:38:57;;;;;;;1.80;0.10;;;;;;;;;;5036525;28;20029;-62
2022/02/07 04:41:24;;;;;;;2.20;0.10;;;;;;;;;;5033580;28;20025;-63
2022/02/07 04:43:57;;;;;;;3.33;0.30;;;;;;;;;;5032089;28;20477;-63
2022/02/07 04:46:35;;;;;;;0.93;0.00;;;;;;;;;;5033264;28;20037;-63
2022/02/07 04:59:22;;;;;;;2.60;0.23;;;;;;;;;;5020181;28;20158;-62
2022/02/07 05:01:51;;;;;;;1.90;0.40;;;;;;;;;;5012766;28;20033;-62
2022/02/07 05:04:31;;;;;;;1.90;0.20;;;;;;;;;;5028580;28;20029;-62
2022/02/07 05:15:08;;;;;;;1.60;0.10;;;;;;;;;;5033158;28;20095;-61
2022/02/07 05:17:37;;;;;;;2.97;0.50;;;;;;;;;;5033272;28;20446;-62
2022/02/07 05:20:03;;;;;;;2.87;0.10;;;;;;;;;;5040288;28;20116;-62
2022/02/07 05:22:30;;;;;;;2.17;0.10;;;;;;;;;;5026547;28;20217;-62
2022/02/07 05:24:55;;;;;;;3.00;0.20;;;;;;;;;;5034925;28;20030;-61
2022/02/07 05:27:20;;;;;;;1.87;0.23;;;;;;;;;;5034034;28;20539;-62
2022/02/07 05:29:46;;;;;;;5.03;0.53;;;;;;;;;;5043853;28;20037;-61
2022/02/07 05:32:11;;;;;;;4.20;0.33;;;;;;;;;;5030910;28;20032;-61
2022/02/07 05:34:36;;;;;;;2.97;0.20;;;;;;;;;;5034535;28;20041;-61
2022/02/07 05:37:02;;;;;;;2.73;0.30;;;;;;;;;;5041477;28;20037;-62
2022/02/07 05:39:33;;;;;;;1.50;0.10;;;;;;;;;;5029101;28;20025;-61
2022/02/07 05:42:04;;;;;;;1.70;0.30;;;;;;;;;;5031717;28;20025;-61
2022/02/07 05:44:29;;;;;;;3.60;0.20;;;;;;;;;;5027787;28;20026;-61
2022/02/07 05:46:54;;;;;;;1.77;0.20;;;;;;;;;;5030976;28;20029;-59
2022/02/07 05:49:22;;;;;;;0.70;0.10;;;;;;;;;;5035597;28;20235;-60
2022/02/07 05:51:48;;;;;;;3.03;0.20;;;;;;;;;;5058054;28;20427;-61
2022/02/07 05:54:13;;;;;;;2.20;0.10;;;;;;;;;;5048857;28;20056;-60
2022/02/07 05:56:38;;;;;;;4.07;0.20;;;;;;;;;;5026065;28;20049;-61
2022/02/07 05:59:03;;;;;;;2.07;0.30;;;;;;;;;;5033718;28;20449;-61
2022/02/07 06:01:28;;;;;;;2.00;0.40;;;;;;;;;;5038282;28;20049;-61
2022/02/07 06:03:53;;;;;;;1.73;0.10;;;;;;;;;;5012122;28;20084;-61
2022/02/07 06:06:19;;;;;;;0.73;0.13;;;;;;;;;;5028920;28;20028;-60
2022/02/07 06:08:44;;;;;;;1.80;0.23;;;;;;;;;;5032413;28;20033;-60
2022/02/07 06:11:11;;;;;;;1.70;0.10;;;;;;;;;;5030924;28;20152;-62
2022/02/07 06:13:38;;;;;;;1.80;0.10;;;;;;;;;;5030946;28;20029;-60
2022/02/07 06:16:04;;;;;;;1.40;0.17;;;;;;;;;;5036550;28;20063;-60
2022/02/07 06:18:30;;;;;;;2.07;0.30;;;;;;;;;;5050941;28;20451;-61
2022/02/07 06:21:00;;;;;;;3.23;0.10;;;;;;;;;;5028141;28;20045;-61
2022/02/07 06:23:28;;;;;;;3.13;0.13;;;;;;;;;;5015203;28;20381;-60
2022/02/07 06:25:53;;;;;;;0.80;0.10;;;;;;;;;;5013746;28;20174;-60
2022/02/07 06:28:18;;;;;;;2.50;0.20;;;;;;;;;;5031632;28;20465;-61
2022/02/07 06:30:44;;;;;;;3.20;0.10;;;;;;;;;;5019660;28;20453;-61
2022/02/07 06:33:09;;;;;;;1.50;0.10;;;;;;;;;;5031645;28;20021;-60
2022/02/07 06:35:34;;;;;;;5.33;0.63;;;;;;;;;;5029913;28;20026;-60
2022/02/07 06:37:59;;;;;;;1.70;0.10;;;;;;;;;;5029901;28;20394;-62
2022/02/07 06:40:24;;;;;;;0.80;0.10;;;;;;;;;;5031630;28;20032;-60
2022/02/07 06:42:49;;;;;;;3.80;0.17;;;;;;;;;;5030089;28;20291;-61
2022/02/07 06:45:15;;;;;;;1.70;0.20;;;;;;;;;;5030290;28;20034;-60
2022/02/07 06:47:40;;;;;;;1.67;0.10;;;;;;;;;;5030084;28;20246;-60
2022/02/07 06:50:05;;;;;;;3.23;0.40;;;;;;;;;;5029529;28;20144;-60
2022/02/07 06:52:30;;;;;;;4.20;0.50;;;;;;;;;;5028975;28;20040;-60
2022/02/07 06:54:56;;;;;;;2.60;0.20;;;;;;;;;;5032676;28;20131;-60
2022/02/07 06:57:22;;;;;;;2.20;0.43;;;;;;;;;;5050809;28;20025;-61
2022/02/07 06:59:48;;;;;;;3.17;0.17;;;;;;;;;;5040401;28;20016;-58
2022/02/07 07:02:13;;;;;;;0.70;0.10;;;;;;;;;;5035830;28;20029;-60
2022/02/07 07:04:39;;;;;;;1.63;0.10;;;;;;;;;;5030658;28;20040;-60
2022/02/07 07:07:04;;;;;;;5.27;0.83;;;;;;;;;;5054352;28;20021;-60
2022/02/07 07:09:31;;;;;;;3.57;0.50;;;;;;;;;;5054801;28;20458;-60
2022/02/07 07:12:02;;;;;;;3.43;0.50;;;;;;;;;;5051947;28;20040;-61
2022/02/07 07:14:31;;;;;;;2.00;0.10;;;;;;;;;;5034667;28;20041;-60
2022/02/07 07:16:58;;;;;;;2.17;0.30;;;;;;;;;;5036323;28;20025;-60
2022/02/07 07:19:26;;;;;;;2.60;0.73;;;;;;;;;;5034672;28;20030;-60
2022/02/07 07:21:51;;;;;;;2.23;0.30;;;;;;;;;;5028373;28;20021;-60
2022/02/07 07:24:17;;;;;;;2.57;0.50;;;;;;;;;;5031521;28;20032;-59
2022/02/07 07:26:42;;;;;;;4.33;0.47;;;;;;;;;;5042993;28;20029;-59
2022/02/07 07:29:12;;;;;;;0.97;0.20;;;;;;;;;;5054632;28;20025;-58
2022/02/07 07:31:43;;;;;;;1.07;0.30;;;;;;;;;;5036066;28;20033;-59
2022/02/07 07:34:08;;;;;;;3.30;0.20;;;;;;;;;;5036898;28;20021;-60
2022/02/07 07:36:33;;;;;;;0.80;0.20;;;;;;;;;;5043064;28;20029;-60
2022/02/07 07:38:58;;;;;;;3.13;0.40;;;;;;;;;;5045947;28;20064;-61
2022/02/07 07:41:26;;;;;;;1.90;0.40;;;;;;;;;;5034766;28;20026;-61
2022/02/07 07:43:51;;;;;;;3.23;0.30;;;;;;;;;;5033815;28;20017;-61
2022/02/07 07:46:18;;;;;;;3.70;0.50;;;;;;;;;;5033745;28;20433;-60
2022/02/07 07:48:51;;;;;;;3.17;0.80;;;;;;;;;;5033784;28;20489;-59
2022/02/07 07:52:26;;;;;;;3.00;0.40;;;;;;;;;;5031794;28;20033;-57
2022/02/07 07:54:20;;;;;;;3.40;0.90;;;;;;;;;;5027357;28;20081;-57
2022/02/07 08:02:18;;;;;;;2.33;1.03;;;;;;;;;;5033968;28;20041;-57
2022/02/07 08:04:45;;;;;;;1.50;0.83;;;;;;;;;;5033008;28;20036;-55
2022/02/07 08:12:05;;;;;;;2.70;1.23;;;;;;;;;;5024945;28;20147;-51
2022/02/07 08:14:34;;;;;;;1.17;0.97;;;;;;;;;;5033843;28;20022;-56
2022/02/07 08:17:00;;;;;;;4.10;0.77;;;;;;;;;;5032959;28;20398;-56
2022/02/07 08:19:27;;;;;;;1.00;0.60;;;;;;;;;;5033216;28;20018;-58
2022/02/07 08:21:54;;;;;;;2.83;0.40;;;;;;;;;;5041300;28;20484;-59
2022/02/07 08:24:19;;;;;;;2.90;0.60;;;;;;;;;;5048663;28;20485;-59
2022/02/07 08:26:46;;;;;;;1.93;0.50;;;;;;;;;;5045646;28;20029;-59
2022/02/07 08:29:11;;;;;;;4.07;0.80;;;;;;;;;;5033730;28;20034;-59
2022/02/07 08:31:36;;;;;;;3.20;0.83;;;;;;;;;;5033430;28;20037;-60
2022/02/07 08:34:02;;;;;;;1.90;0.50;;;;;;;;;;5033456;28;20033;-59
2022/02/07 08:36:27;;;;;;;3.40;0.63;;;;;;;;;;5033591;28;20112;-60
2022/02/07 08:38:52;;;;;;;2.50;0.80;;;;;;;;;;5040341;28;20045;-61
2022/02/07 08:41:17;;;;;;;3.07;0.93;;;;;;;;;;5013693;28;20018;-61
2022/02/07 08:43:43;;;;;;;1.97;1.07;;;;;;;;;;5015496;28;20017;-61
2022/02/07 08:46:08;;;;;;;2.83;1.17;;;;;;;;;;5033007;28;20071;-60
2022/02/07 08:48:34;;;;;;;6.63;1.97;;;;;;;;;;5046483;28;20029;-62
2022/02/07 08:50:59;;;;;;;6.23;1.90;;;;;;;;;;5029707;28;20071;-60
2022/02/07 08:53:33;;;;;;;3.27;1.43;;;;;;;;;;5051211;28;20020;-60
2022/02/07 08:55:59;;;;;;;4.13;1.45;;;;;;;;;;5034643;28;20060;-60
2022/02/07 08:58:28;;;;;;;7.83;1.23;;;;;;;;;;5031123;28;20106;-61
2022/02/07 09:10:42;;;;;;;5.80;1.50;;;;;;;;;;5032502;28;20084;-60
2022/02/07 09:13:08;;;;;;;8.67;2.57;;;;;;;;;;5030546;28;20434;-60
2022/02/07 09:18:05;;;;;;;3.70;0.60;;;;;;;;;;5029454;28;20032;-60
2022/02/07 09:20:31;;;;;;;7.67;0.87;;;;;;;;;;5012717;28;20018;-61
2022/02/07 09:22:56;;;;;;;4.60;0.70;;;;;;;;;;5020326;28;20061;-61
2022/02/07 09:25:21;;;;;;;4.30;0.70;;;;;;;;;;5032459;28;20098;-61
2022/02/07 09:27:46;;;;;;;7.13;0.60;;;;;;;;;;5031933;28;20025;-61
2022/02/07 09:30:12;;;;;;;4.50;0.93;;;;;;;;;;5025628;28;20079;-60
2022/02/07 09:32:37;;;;;;;2.63;0.60;;;;;;;;;;5038170;28;20132;-61
2022/02/07 09:35:02;;;;;;;7.60;0.90;;;;;;;;;;5034598;28;20113;-61
2022/02/07 09:37:28;;;;;;;5.40;0.70;;;;;;;;;;5031969;28;20033;-62
2022/02/07 09:39:53;;;;;;;3.40;0.47;;;;;;;;;;5039786;28;20068;-62
2022/02/07 09:42:18;;;;;;;10.30;1.03;;;;;;;;;;5039851;28;20100;-61
2022/02/07 09:44:49;;;;;;;6.07;1.03;;;;;;;;;;5032032;28;20022;-61
2022/02/07 09:47:15;;;;;;;5.73;0.70;;;;;;;;;;5031164;28;20030;-61
2022/02/07 09:49:41;;;;;;;6.57;0.70;;;;;;;;;;5031793;28;20027;-61
2022/02/07 09:52:08;;;;;;;6.43;0.67;;;;;;;;;;5019951;28;20030;-61
2022/02/07 09:54:34;;;;;;;3.43;0.33;;;;;;;;;;5023647;28;20085;-62
2022/02/07 09:56:59;;;;;;;5.87;0.50;;;;;;;;;;5032606;28;20060;-61
2022/02/07 09:59:29;;;;;;;4.07;0.33;;;;;;;;;;5031515;28;20152;-61
2022/02/07 10:01:57;;;;;;;4.00;0.70;;;;;;;;;;5026177;28;20076;-61
2022/02/07 10:04:27;;;;;;;6.30;0.97;;;;;;;;;;5031813;28;20106;-61
2022/02/07 10:07:07;;;;;;;9.67;1.50;;;;;;;;;;5026036;28;20021;-61
2022/02/07 10:14:38;;;;;;;6.00;0.67;;;;;;;;;;5031597;28;20023;-61
2022/02/07 10:19:56;;;;;;;6.43;0.40;;;;;;;;;;5026466;28;20513;-61
2022/02/07 10:45:02;;;;;;;3.50;0.45;;;;;;;;;;5035350;28;20080;-64
2022/02/07 10:47:32;;;;;;;3.72;0.80;;;;;;;;;;5016047;28;20160;-62
2022/02/07 10:49:59;;;;;;;3.47;0.50;;;;;;;;;;5025388;28;20025;-64
2022/02/07 10:52:25;;;;;;;2.33;0.38;;;;;;;;;;5020163;28;20092;-61
2022/02/07 10:54:51;;;;;;;5.97;0.50;;;;;;;;;;5021894;28;20051;-62
2022/02/07 10:57:16;;;;;;;4.50;0.60;;;;;;;;;;5040458;28;20037;-61
2022/02/07 10:59:41;;;;;;;3.38;0.40;;;;;;;;;;5046972;28;20450;-62
2022/02/07 11:04:45;;;;;;;4.82;0.40;;;;;;;;;;5047004;28;20063;-61
2022/02/07 11:07:11;;;;;;;6.78;0.50;;;;;;;;;;5016709;28;20549;-61
2022/02/07 11:12:39;;;;;;;2.22;0.28;;;;;;;;;;5034705;28;20102;-61
2022/02/07 11:15:14;;;;;;;4.22;0.50;;;;;;;;;;5047399;28;20027;-61
2022/02/07 11:18:03;;;;;;;3.30;0.57;;;;;;;;;;5053656;28;20553;-62
2022/02/07 11:23:23;;;;;;;4.22;0.30;;;;;;;;;;5026265;28;20489;-62
2022/02/07 11:25:54;;;;;;;;;;;;;;;;;;5031097;28;20036;-60
2022/02/07 11:28:27;;;;;;;3.65;0.40;;;;;;;;;;5045818;28;19905;-60
2022/02/07 11:30:52;;;;;;;5.07;0.75;;;;;;;;;;5029833;28;20072;-61
2022/02/07 11:33:28;;;;;;;8.77;2.10;;;;;;;;;;5039236;28;20049;-60
2022/02/07 11:35:53;;;;;;;3.63;0.28;;;;;;;;;;5039820;28;20032;-61
2022/02/07 11:38:19;;;;;;;4.28;0.38;;;;;;;;;;5037742;28;20025;-61
2022/02/07 11:40:56;;;;;;;6.18;0.50;;;;;;;;;;5031700;28;20408;-59
2022/02/07 11:43:24;;;;;;;4.63;0.50;;;;;;;;;;5034748;28;20029;-61
2022/02/07 11:45:52;;;;;;;6.20;0.52;;;;;;;;;;5028217;28;20091;-61
2022/02/07 11:48:20;;;;;;;5.82;0.60;;;;;;;;;;5032400;28;20029;-61
2022/02/07 11:50:46;;;;;;;6.30;0.80;;;;;;;;;;5043019;28;20065;-60
2022/02/07 11:53:12;;;;;;;6.53;0.85;;;;;;;;;;5019047;28;20809;-61
2022/02/07 11:55:46;;;;;;;6.32;1.05;;;;;;;;;;5036671;28;20060;-60
2022/02/07 11:58:20;;;;;;;5.88;0.32;;;;;;;;;;5039136;28;20124;-60
2022/02/07 12:00:48;;;;;;;6.60;1.23;;;;;;;;;;5030174;28;20127;-60
2022/02/07 12:03:14;;;;;;;5.63;0.88;;;;;;;;;;5032770;28;20022;-60
2022/02/07 12:05:41;;;;;;;8.70;1.65;;;;;;;;;;5034397;28;20027;-61
2022/02/07 12:08:12;;;;;;;6.15;0.85;;;;;;;;;;5052530;28;20021;-60
2022/02/07 12:10:39;;;;;;;8.65;0.80;;;;;;;;;;5034525;28;20087;-59
2022/02/07 12:13:25;;;;;;;6.88;1.40;;;;;;;;;;5033078;28;20048;-60
2022/02/07 12:15:53;;;;;;;6.80;0.60;;;;;;;;;;5047461;28;20522;-60
2022/02/07 12:18:22;;;;;;;6.40;0.98;;;;;;;;;;5034642;28;20024;-60
2022/02/07 12:20:49;;;;;;;15.13;2.53;;;;;;;;;;5044529;28;20025;-60
2022/02/07 12:23:17;;;;;;;7.22;0.60;;;;;;;;;;5026888;28;20021;-60
2022/02/07 12:25:52;;;;;;;6.65;0.68;;;;;;;;;;5031197;28;20027;-59
2022/02/07 12:28:26;;;;;;;6.30;0.35;;;;;;;;;;5034411;28;20025;-61
2022/02/07 12:31:08;;;;;;;9.85;0.90;;;;;;;;;;5035339;28;20055;-59
2022/02/07 12:33:33;;;;;;;6.38;0.95;;;;;;;;;;5029422;28;20025;-59
2022/02/07 12:36:00;;;;;;;5.30;0.60;;;;;;;;;;5031370;28;20557;-60
2022/02/07 12:38:25;;;;;;;4.95;0.88;;;;;;;;;;5032092;28;20025;-61
2022/02/07 12:40:51;;;;;;;5.55;0.70;;;;;;;;;;5031253;28;20529;-60
2022/02/07 12:43:18;;;;;;;8.13;1.35;;;;;;;;;;5013217;28;20025;-61
2022/02/07 12:45:43;;;;;;;7.50;0.77;;;;;;;;;;5020299;28;20033;-60
2022/02/07 12:48:14;;;;;;;3.55;0.80;;;;;;;;;;5033086;28;20482;-60
2022/02/07 12:50:46;;;;;;;7.25;0.70;;;;;;;;;;5021962;28;20017;-61
2022/02/07 12:53:15;;;;;;;5.50;0.50;;;;;;;;;;5014358;28;20422;-60
2022/02/07 12:55:40;;;;;;;4.95;0.63;;;;;;;;;;5030251;28;20091;-60
2022/02/07 12:58:05;;;;;;;6.30;0.80;;;;;;;;;;5020863;28;20112;-60
2022/02/07 13:00:31;;;;;;;11.80;1.27;;;;;;;;;;5027359;28;20029;-60
2022/02/07 13:02:56;;;;;;;7.68;0.88;;;;;;;;;;5030552;28;20033;-59
2022/02/07 13:05:21;;;;;;;4.40;0.68;;;;;;;;;;5026608;28;20033;-61
2022/02/07 13:07:50;;;;;;;7.28;0.70;;;;;;;;;;5026751;28;20025;-61
2022/02/07 13:10:18;;;;;;;9.30;1.15;;;;;;;;;;5012221;28;20124;-60
2022/02/07 13:15:26;;;;;;;6.65;0.93;;;;;;;;;;5032334;28;20044;-58
2022/02/07 13:17:57;;;;;;;8.95;0.90;;;;;;;;;;5031150;28;20021;-59
2022/02/07 13:20:23;;;;;;;8.75;1.30;;;;;;;;;;5017891;28;20034;-60
2022/02/07 13:23:00;;;;;;;10.82;1.38;;;;;;;;;;5013148;28;20026;-60
2022/02/07 13:25:35;;;;;;;11.07;1.50;;;;;;;;;;5017406;28;20028;-60
2022/02/07 13:28:01;;;;;;;;;;;;;;;;;;5021704;28;20098;-59
2022/02/07 13:30:26;;;;;;;12.02;1.38;;;;;;;;;;5022724;28;19910;-60
2022/02/07 13:32:52;;;;;;;13.10;1.45;;;;;;;;;;5012486;28;20482;-59
2022/02/07 13:35:19;;;;;;;14.77;1.52;;;;;;;;;;5016292;28;20033;-59
2022/02/07 13:37:44;;;;;;;14.30;1.73;;;;;;;;;;5032291;28;20029;-60
2022/02/07 13:40:09;;;;;;;14.75;2.25;;;;;;;;;;5030846;28;20099;-58
2022/02/07 13:42:36;;;;;;;16.70;2.53;;;;;;;;;;5038016;28;20017;-60
2022/02/07 13:45:07;;;;;;;16.90;2.08;;;;;;;;;;5051647;28;20063;-59
2022/02/07 13:47:33;;;;;;;20.67;3.00;;;;;;;;;;5028794;28;20033;-60
2022/02/07 13:50:01;;;;;;;12.98;1.63;;;;;;;;;;5038032;28;20362;-60
2022/02/07 13:52:30;;;;;;;14.35;1.63;;;;;;;;;;5016104;28;20146;-58
2022/02/07 13:55:14;;;;;;;15.55;2.58;;;;;;;;;;5014496;28;20085;-59
2022/02/07 13:57:51;;;;;;;11.27;1.60;;;;;;;;;;5028447;28;20021;-61
2022/02/07 14:00:17;;;;;;;10.65;1.90;;;;;;;;;;5031770;28;20029;-60
2022/02/07 14:02:43;;;;;;;12.82;1.77;;;;;;;;;;5030095;28;20108;-60
2022/02/07 14:05:09;;;;;;;11.48;1.98;;;;;;;;;;5034098;28;20061;-59
2022/02/07 14:07:51;;;;;;;12.60;1.92;;;;;;;;;;5030738;28;20470;-60
2022/02/07 14:10:20;;;;;;;13.07;1.92;;;;;;;;;;5022903;28;20030;-61
2022/02/07 14:12:45;;;;;;;11.32;1.58;;;;;;;;;;5030694;28;20070;-60
2022/02/07 14:15:11;;;;;;;12.25;1.70;;;;;;;;;;5030678;28;20111;-59
2022/02/07 14:17:42;;;;;;;11.23;2.15;;;;;;;;;;5031023;28;20098;-61
2022/02/07 14:20:10;;;;;;;11.27;1.80;;;;;;;;;;5034797;28;20030;-59
2022/02/07 14:22:36;;;;;;;15.10;2.25;;;;;;;;;;5015601;28;20382;-60
2022/02/07 14:25:02;;;;;;;10.98;1.55;;;;;;;;;;5028451;28;20037;-61
2022/02/07 14:27:27;;;;;;;10.30;1.35;;;;;;;;;;5030963;28;20044;-59
2022/02/07 14:29:52;;;;;;;16.08;1.98;;;;;;;;;;5033787;28;20033;-61
2022/02/07 14:32:17;;;;;;;16.58;1.80;;;;;;;;;;5030414;28;20033;-60
2022/02/07 14:34:43;;;;;;;14.13;2.00;;;;;;;;;;5031248;28;20025;-60
2022/02/07 14:37:10;;;;;;;15.68;1.83;;;;;;;;;;5032079;28;20040;-61
2022/02/07 14:39:36;;;;;;;17.57;2.37;;;;;;;;;;5026031;28;20474;-61
2022/02/07 14:42:04;;;;;;;19.30;2.90;;;;;;;;;;5030775;28;20025;-61
2022/02/07 14:44:32;;;;;;;13.82;1.73;;;;;;;;;;5031971;28;20394;-61
2022/02/07 14:47:06;;;;;;;11.32;1.52;;;;;;;;;;5031067;28;20025;-62
2022/02/07 14:49:31;;;;;;;11.63;1.73;;;;;;;;;;5029502;28;20064;-62
2022/02/07 14:51:59;;;;;;;13.17;2.53;;;;;;;;;;5023393;28;20052;-62
2022/02/07 14:54:24;;;;;;;14.27;2.00;;;;;;;;;;5020137;28;20054;-62
2022/02/07 14:56:50;;;;;;;16.20;1.98;;;;;;;;;;5011183;28;20038;-62
2022/02/07 14:59:17;;;;;;;13.10;1.80;;;;;;;;;;5011726;28;20482;-63
2022/02/07 15:01:43;;;;;;;15.18;1.70;;;;;;;;;;5043859;28;20485;-64
2022/02/07 15:04:09;;;;;;;14.52;1.50;;;;;;;;;;5034109;28;20092;-63
2022/02/07 15:06:34;;;;;;;11.60;1.83;;;;;;;;;;5029753;28;20465;-64
2022/02/07 15:08:59;;;;;;;9.13;1.60;;;;;;;;;;5022389;28;20030;-61
2022/02/07 15:11:27;;;;;;;12.20;1.90;;;;;;;;;;5044338;28;20029;-63
2022/02/07 15:13:52;;;;;;;12.45;1.05;;;;;;;;;;5023479;28;20041;-63
2022/02/07 15:16:17;;;;;;;8.32;1.25;;;;;;;;;;5014328;28;20030;-64
2022/02/07 15:18:42;;;;;;;6.57;0.80;;;;;;;;;;5011751;28;20057;-63
2022/02/07 15:21:07;;;;;;;7.68;1.48;;;;;;;;;;5008781;28;20545;-62
2022/02/07 15:23:36;;;;;;;5.97;1.17;;;;;;;;;;5022024;28;20026;-63
2022/02/07 15:26:02;;;;;;;9.90;1.85;;;;;;;;;;5022921;28;20065;-63
2022/02/07 15:28:28;;;;;;;5.30;0.77;;;;;;;;;;5015726;28;20050;-62
2022/02/07 15:30:53;;;;;;;8.93;1.08;;;;;;;;;;5034010;28;20025;-63
2022/02/07 15:33:20;;;;;;;9.05;0.88;;;;;;;;;;5026140;28;20034;-61
2022/02/07 15:35:52;;;;;;;7.00;1.13;;;;;;;;;;5033525;28;20029;-62
2022/02/07 15:38:22;;;;;;;5.13;0.80;;;;;;;;;;5034515;28;20416;-62
2022/02/07 15:40:48;;;;;;;6.10;0.67;;;;;;;;;;5034331;28;20486;-63
2022/02/07 15:43:13;;;;;;;6.37;1.33;;;;;;;;;;5036346;28;20027;-61
2022/02/07 15:45:39;;;;;;;8.30;1.03;;;;;;;;;;5044782;28;20025;-61
2022/02/07 15:48:04;;;;;;;4.77;0.50;;;;;;;;;;5026423;28;20481;-63
2022/02/07 15:50:30;;;;;;;5.73;0.73;;;;;;;;;;5017333;28;20483;-62
2022/02/07 15:52:59;;;;;;;4.67;0.93;;;;;;;;;;5030020;28;20452;-61
2022/02/07 15:55:26;;;;;;;9.87;1.10;;;;;;;;;;5016083;28;20422;-62
2022/02/07 15:57:51;;;;;;;5.23;0.97;;;;;;;;;;5031929;28;20037;-62
2022/02/07 16:00:16;;;;;;;6.53;0.83;;;;;;;;;;5027662;28;20387;-62
2022/02/07 16:02:48;;;;;;;3.53;0.90;;;;;;;;;;5030875;28;20022;-62
2022/02/07 16:05:13;;;;;;;6.27;0.77;;;;;;;;;;5014195;28;20063;-62
2022/02/07 16:07:39;;;;;;;4.77;0.90;;;;;;;;;;5028721;28;20018;-61
2022/02/07 16:10:04;;;;;;;1.67;0.77;;;;;;;;;;5033228;28;20096;-62
2022/02/07 16:12:29;;;;;;;10.53;1.00;;;;;;;;;;5051707;28;20032;-62
2022/02/07 16:14:55;;;;;;;7.13;1.20;;;;;;;;;;5053606;28;20025;-62
2022/02/07 16:17:21;;;;;;;11.30;1.23;;;;;;;;;;5044051;28;20061;-62
2022/02/07 16:19:46;;;;;;;5.13;1.33;;;;;;;;;;5032328;28;20036;-62
2022/02/07 16:22:11;;;;;;;7.97;1.07;;;;;;;;;;5019314;28;20029;-62
2022/02/07 16:24:41;;;;;;;6.73;0.77;;;;;;;;;;5025058;28;20053;-62
2022/02/07 16:27:08;;;;;;;11.17;0.73;;;;;;;;;;5032464;28;20032;-63
2022/02/07 16:29:33;;;;;;;5.63;1.50;;;;;;;;;;5030480;28;20079;-62
2022/02/07 16:31:59;;;;;;;9.10;1.50;;;;;;;;;;5025902;28;20033;-63
2022/02/07 16:34:24;;;;;;;8.50;1.17;;;;;;;;;;5033274;28;20033;-62
2022/02/07 16:36:50;;;;;;;6.30;0.83;;;;;;;;;;5013779;28;20025;-61
2022/02/07 16:39:16;;;;;;;11.83;1.20;;;;;;;;;;5023103;28;20029;-61
2022/02/07 16:41:41;;;;;;;6.03;0.67;;;;;;;;;;5042394;28;20022;-62
2022/02/07 16:44:11;;;;;;;6.57;0.70;;;;;;;;;;5023282;28;20037;-65
2022/02/07 16:46:48;;;;;;;5.47;0.60;;;;;;;;;;5029588;28;20064;-62
2022/02/07 16:49:14;;;;;;;22.37;4.43;;;;;;;;;;5035725;28;20226;-63
2022/02/07 16:51:39;;;;;;;8.53;0.80;;;;;;;;;;5029243;28;20071;-62
2022/02/07 16:54:04;;;;;;;9.17;0.93;;;;;;;;;;5029013;28;20045;-63
2022/02/07 16:56:30;;;;;;;6.40;0.70;;;;;;;;;;5022577;28;20080;-62
2022/02/07 16:58:55;;;;;;;7.33;0.67;;;;;;;;;;5032655;28;20047;-63
2022/02/07 17:01:20;;;;;;;8.93;0.90;;;;;;;;;;5027754;28;20048;-64
2022/02/07 17:03:45;;;;;;;9.30;1.23;;;;;;;;;;5032794;28;20520;-63
2022/02/07 17:06:11;;;;;;;9.40;0.53;;;;;;;;;;5029661;28;20064;-62
2022/02/07 17:08:36;;;;;;;8.18;1.15;;;;;;;;;;5021402;28;20116;-62
2022/02/07 17:11:05;;;;;;;10.63;2.57;;;;;;;;;;5033795;28;20029;-64
2022/02/07 17:13:31;;;;;;;9.13;0.97;;;;;;;;;;5032525;28;20107;-62